Ferry Kyoto II — JI3701 — position and weather

sailwx.info

Track history (hours):
 
Tides and Currents Weather Stations Pressure Air Temp Water Temp Dewpoint Dewpoint Depression Visibility Wind Speed Wind Dir Waves Ship Positions

Ferry Kyoto II

Last reported at 2018-Apr-21 20:31 UTC. Time now 2018-Apr-21 20:45 UTC.
Position N 34°37' E 135°22'.

Length 167 m; draft 5.9 m.

Type: Passenger vessel. MMSI: 431301641.

Date/timePositionNaut miles runAvg speedWind from/ knotsBaromVisibWave heightAir tempDewpointWater temp
2018-Apr-21 20:31N 34°37' E 135°22'713.4
2018-Apr-21 20:00N 34°35' E 135°14'713.8
2018-Apr-21 19:30N 34°34' E 135°06'714.4
2018-Apr-21 19:00N 34°36' E 134°58'1020.9
2018-Apr-21 18:30N 34°32' E 134°46'1121.4
2018-Apr-21 18:00N 34°28' E 134°34'1121.7
2018-Apr-21 17:31N 34°24' E 134°22'1120.6
2018-Apr-21 17:00N 34°25' E 134°09'1015.4
2018-Apr-21 16:21N 34°24' E 133°57'513.4
2018-Apr-21 16:00N 34°23' E 133°52'816.6
2018-Apr-21 15:30N 34°19' E 133°43'1420.3
2018-Apr-21 14:48N 34°15' E 133°26'2818.2
2018-Apr-21 13:15N 34°09' E 132°53'622.6
2018-Apr-21 12:59N 34°04' E 132°49'1122.2
2018-Apr-21 12:31N 33°56' E 132°41'1121.8
2018-Apr-21 12:00N 33°49' E 132°30'1222.1
2018-Apr-21 11:28N 33°44' E 132°17'1421.3
2018-Apr-21 10:50N 33°42' E 132°01'720.9
2018-Apr-21 10:30N 33°43' E 131°53'1121.2
2018-Apr-21 10:00N 33°46' E 131°41'1121.4
2018-Apr-21 09:31N 33°48' E 131°28'1121.6
2018-Apr-21 09:00N 33°50' E 131°15'918.6
2018-Apr-21 08:31N 33°53' E 131°05'5 8.8
2018-Apr-21 07:57N 33°52' E 130°59'0 0.0
2018-Apr-21 07:27N 33°52' E 130°59'0 0.0
2018-Apr-21 06:57N 33°52' E 130°59'0 0.0
2018-Apr-21 06:27N 33°52' E 130°59'0 0.0
2018-Apr-21 06:00N 33°52' E 130°59'0 0.0
2018-Apr-21 05:27N 33°52' E 130°59'0 0.0
2018-Apr-21 04:57N 33°52' E 130°59'0 0.3
2018-Apr-21 04:27N 33°52' E 130°59'0 0.0
2018-Apr-21 03:57N 33°52' E 130°59'0 0.0
2018-Apr-21 03:21N 33°52' E 130°59'0 0.0
2018-Apr-21 02:57N 33°52' E 130°59'0 0.0
2018-Apr-21 02:27N 33°52' E 130°59'0 0.0
2018-Apr-21 01:57N 33°52' E 130°59'0 0.0
2018-Apr-21 01:27N 33°52' E 130°59'0 0.0
2018-Apr-21 00:57N 33°52' E 130°59'0 0.0
2018-Apr-21 00:27N 33°52' E 130°59'0 0.0
2018-Apr-20 23:57N 33°52' E 130°59'0 0.0
2018-Apr-20 23:27N 33°52' E 130°59'0 0.0
2018-Apr-20 22:57N 33°52' E 130°59'0 0.0
2018-Apr-20 22:27N 33°52' E 130°59'0 0.3
2018-Apr-20 21:56N 33°52' E 130°59'0 0.0
2018-Apr-20 21:26N 33°52' E 130°59'0 0.0
2018-Apr-20 20:56N 33°52' E 130°59'0 0.0
2018-Apr-20 20:31N 33°52' E 130°59'5 9.5
2018-Apr-20 20:00N 33°54' E 131°05'918.1
2018-Apr-20 19:30N 33°51' E 131°15'1020.9
2018-Apr-20 19:00N 33°50' E 131°28'1121.2
2018-Apr-20 18:30N 33°48' E 131°40'1121.4
2018-Apr-20 18:00N 33°46' E 131°53'1121.0
2018-Apr-20 17:30N 33°47' E 132°06'1121.3
2018-Apr-20 16:59N 33°50' E 132°18'1121.2
2018-Apr-20 16:29N 33°53' E 132°31'1020.7
2018-Apr-20 16:00N 33°57' E 132°41'6317.7
2018-Apr-20 12:26N 34°23' E 133°51'714.3
2018-Apr-20 11:58N 34°25' E 133°59'918.3
2018-Apr-20 11:29N 34°26' E 134°09'1021.0
2018-Apr-20 11:00N 34°25' E 134°21'1121.4
2018-Apr-20 10:30N 34°29' E 134°34'1121.1
2018-Apr-20 10:00N 34°33' E 134°46'1020.3
2018-Apr-20 09:31N 34°37' E 134°57'917.2
2018-Apr-20 09:00N 34°36' E 135°07'1020.2
2018-Apr-20 08:30N 34°37' E 135°19'5 9.7
2018-Apr-20 07:58N 34°37' E 135°26'0 0.0
2018-Apr-20 07:28N 34°37' E 135°26'0 0.0
2018-Apr-20 06:58N 34°37' E 135°26'0 0.0
2018-Apr-20 06:28N 34°37' E 135°26'0 0.0
2018-Apr-20 05:49N 34°37' E 135°26'0 0.0
2018-Apr-20 05:28N 34°37' E 135°26'0 0.0
2018-Apr-20 04:49N 34°37' E 135°26'0 0.0
2018-Apr-20 04:28N 34°37' E 135°26'0 0.0
2018-Apr-20 03:58N 34°37' E 135°26'0 0.0
2018-Apr-20 03:28N 34°37' E 135°26'0 0.0
2018-Apr-20 02:58N 34°37' E 135°26'0 0.0
2018-Apr-20 02:28N 34°37' E 135°26'0 0.0
2018-Apr-20 01:58N 34°37' E 135°26'0 0.0
2018-Apr-20 01:28N 34°37' E 135°26'0 0.0
2018-Apr-20 00:58N 34°37' E 135°26'0 0.0
2018-Apr-20 00:28N 34°37' E 135°26'0 0.0
2018-Apr-19 23:58N 34°37' E 135°26'0 0.0
2018-Apr-19 23:28N 34°37' E 135°26'0 0.0
2018-Apr-19 22:58N 34°37' E 135°26'0 0.0
2018-Apr-19 22:28N 34°37' E 135°26'0 0.0
2018-Apr-19 21:58N 34°37' E 135°26'0 0.0
2018-Apr-19 21:28N 34°37' E 135°26'0 0.0
2018-Apr-19 20:58N 34°37' E 135°26'0 0.0
2018-Apr-19 20:30N 34°37' E 135°26'4 7.8
2018-Apr-19 20:00N 34°37' E 135°21'1019.8
2018-Apr-19 19:31N 34°35' E 135°09'1020.6
2018-Apr-19 19:01N 34°36' E 134°57'1122.0
2018-Apr-19 18:30N 34°31' E 134°45'1019.9
2018-Apr-19 18:01N 34°27' E 134°34'1019.9
2018-Apr-19 17:30N 34°24' E 134°22'1020.0
2018-Apr-19 17:01N 34°25' E 134°10'916.1
2018-Apr-19 16:28N 34°25' E 133°60'5317.3
2018-Apr-19 13:24N 34°09' E 132°58'919.9
2018-Apr-19 12:57N 34°04' E 132°49'1123.8
2018-Apr-19 12:30N 33°56' E 132°41'1223.1
2018-Apr-19 12:00N 33°49' E 132°30'1122.7
2018-Apr-19 11:30N 33°44' E 132°18'1121.9
2018-Apr-19 10:59N 33°42' E 132°05'1021.4
2018-Apr-19 10:31N 33°44' E 131°53'1121.2
2018-Apr-19 10:01N 33°46' E 131°40'1121.1
2018-Apr-19 09:31N 33°48' E 131°28'1121.5
2018-Apr-19 09:01N 33°51' E 131°15'918.0
2018-Apr-19 08:30N 33°53' E 131°05'5 7.9
2018-Apr-19 07:55N 33°52' E 130°59'0 0.0
2018-Apr-19 07:25N 33°52' E 130°59'0 0.0
2018-Apr-19 06:58N 33°52' E 130°59'0 0.0
2018-Apr-19 06:25N 33°52' E 130°59'0 0.0
2018-Apr-19 05:55N 33°52' E 130°59'0 0.0
2018-Apr-19 05:28N 33°52' E 130°59'0 0.0
2018-Apr-19 04:56N 33°52' E 130°59'3 6.4
2018-Apr-19 04:30N 33°53' E 131°02'0 0.2
2018-Apr-19 03:59N 33°53' E 131°02'0 0.0
2018-Apr-19 03:29N 33°53' E 131°02'0 0.0
2018-Apr-19 02:59N 33°53' E 131°02'0 0.0
2018-Apr-19 02:29N 33°53' E 131°02'0 0.0
2018-Apr-19 01:59N 33°53' E 131°02'0 0.0
2018-Apr-19 01:29N 33°53' E 131°02'0 0.0
2018-Apr-19 00:59N 33°53' E 131°02'0 0.0
2018-Apr-19 00:29N 33°53' E 131°02'0 0.0
2018-Apr-18 23:59N 33°53' E 131°02'0 0.1
2018-Apr-18 23:29N 33°53' E 131°02'0 0.0
2018-Apr-18 22:59N 33°53' E 131°02'0 0.1
2018-Apr-18 22:29N 33°53' E 131°02'3 4.9
2018-Apr-18 21:55N 33°52' E 130°59'0 0.0
2018-Apr-18 21:19N 33°52' E 130°59'0 0.0
2018-Apr-18 20:55N 33°52' E 130°59'0 0.0
2018-Apr-18 20:28N 33°52' E 130°59'3 6.4
2018-Apr-18 20:00N 33°54' E 131°02'815.4
2018-Apr-18 19:30N 33°53' E 131°12'1020.3
2018-Apr-18 19:01N 33°50' E 131°23'1121.4
2018-Apr-18 18:30N 33°49' E 131°36'1121.2
2018-Apr-18 17:59N 33°47' E 131°49'1121.5
2018-Apr-18 17:29N 33°46' E 132°02'1122.3
2018-Apr-18 16:59N 33°50' E 132°15'1022.2
2018-Apr-18 16:30N 33°52' E 132°27'1121.7
2018-Apr-18 16:01N 33°56' E 132°39'1120.6
2018-Apr-18 15:27N 34°04' E 132°49'6616.5
2018-Apr-18 11:28N 34°27' E 134°04'1022.8
2018-Apr-18 11:00N 34°25' E 134°16'1122.3
2018-Apr-18 10:31N 34°28' E 134°29'1122.1
2018-Apr-18 10:00N 34°32' E 134°41'1121.9
2018-Apr-18 09:31N 34°36' E 134°54'1019.5
2018-Apr-18 09:00N 34°36' E 135°06'1020.7
2018-Apr-18 08:31N 34°37' E 135°18'612.3
2018-Apr-18 07:59N 34°37' E 135°26'0 0.0
2018-Apr-18 07:26N 34°37' E 135°26'0 0.0
2018-Apr-18 06:59N 34°37' E 135°26'0 0.0
2018-Apr-18 06:29N 34°37' E 135°26'0 0.0
2018-Apr-18 05:59N 34°37' E 135°26'0 0.0
2018-Apr-18 05:29N 34°37' E 135°26'0 0.0
2018-Apr-18 04:59N 34°37' E 135°26'0 0.0
2018-Apr-18 04:29N 34°37' E 135°26'0 0.0
2018-Apr-18 03:59N 34°37' E 135°26'0 0.0
2018-Apr-18 03:29N 34°37' E 135°26'0 0.0
2018-Apr-18 02:59N 34°37' E 135°26'0 0.0
2018-Apr-18 02:29N 34°37' E 135°26'0 0.0
2018-Apr-18 01:59N 34°37' E 135°26'0 0.0
2018-Apr-18 01:26N 34°37' E 135°26'0 0.0
2018-Apr-18 00:59N 34°37' E 135°26'0 0.0
2018-Apr-18 00:23N 34°37' E 135°26'0 0.0
2018-Apr-17 23:59N 34°37' E 135°26'0 0.0
2018-Apr-17 23:29N 34°37' E 135°26'0 0.0
2018-Apr-17 22:59N 34°37' E 135°26'0 0.0
2018-Apr-17 22:29N 34°37' E 135°26'0 0.0
2018-Apr-17 21:56N 34°37' E 135°26'0 0.0
2018-Apr-17 21:29N 34°37' E 135°26'0 0.0
2018-Apr-17 20:56N 34°37' E 135°26'0 0.0
2018-Apr-17 20:29N 34°37' E 135°26'2 4.9
2018-Apr-17 20:00N 34°38' E 135°23'612.9
2018-Apr-17 19:30N 34°36' E 135°16'816.9
2018-Apr-17 19:01N 34°35' E 135°06'1121.4
2018-Apr-17 18:31N 34°34' E 134°53'1122.0
2018-Apr-17 18:01N 34°30' E 134°41'1121.4
2018-Apr-17 17:30N 34°26' E 134°28'1121.4
2018-Apr-17 17:00N 34°24' E 134°16'1121.3
2018-Apr-17 16:29N 34°26' E 134°03'2216.9
2018-Apr-17 15:12N 34°18' E 133°38'3519.0
2018-Apr-17 13:23N 34°09' E 132°58'720.0
2018-Apr-17 13:00N 34°05' E 132°50'1224.0
2018-Apr-17 12:31N 33°56' E 132°41'1223.3
2018-Apr-17 12:00N 33°49' E 132°30'1223.0
2018-Apr-17 11:30N 33°44' E 132°17'1122.2
2018-Apr-17 11:01N 33°42' E 132°04'1121.6
2018-Apr-17 10:30N 33°44' E 131°51'1121.0
2018-Apr-17 10:00N 33°46' E 131°39'1020.8
2018-Apr-17 09:31N 33°48' E 131°27'1020.9
2018-Apr-17 09:01N 33°51' E 131°15'917.8
2018-Apr-17 08:31N 33°54' E 131°05'5 8.7
2018-Apr-17 07:56N 33°52' E 130°59'0 0.0
2018-Apr-17 07:26N 33°52' E 130°59'0 0.0
2018-Apr-17 06:56N 33°52' E 130°59'0 0.0
2018-Apr-17 06:26N 33°52' E 130°59'0 0.0
2018-Apr-17 05:56N 33°52' E 130°59'0 0.0
2018-Apr-17 05:26N 33°52' E 130°59'0 0.0
2018-Apr-17 05:00N 33°52' E 130°59'2 4.9
2018-Apr-17 04:30N 33°53' E 131°02'0 0.4
2018-Apr-17 03:59N 33°53' E 131°02'0 0.0
2018-Apr-17 03:29N 33°53' E 131°02'0 0.0
2018-Apr-17 02:59N 33°53' E 131°02'0 0.1
2018-Apr-17 02:29N 33°53' E 131°02'0 0.0
2018-Apr-17 01:59N 33°53' E 131°02'0 0.1
2018-Apr-17 01:29N 33°53' E 131°02'0 0.1
2018-Apr-17 00:59N 33°53' E 131°02'0 0.0
2018-Apr-17 00:29N 33°53' E 131°02'0 0.0
2018-Apr-16 23:59N 33°53' E 131°02'0 0.0
2018-Apr-16 23:29N 33°53' E 131°02'0 0.0
2018-Apr-16 22:59N 33°53' E 131°02'0 0.2
2018-Apr-16 22:29N 33°53' E 131°02'3 5.4
2018-Apr-16 22:00N 33°52' E 130°59'0 0.0
2018-Apr-16 21:24N 33°52' E 130°59'0 0.0
2018-Apr-16 21:00N 33°52' E 130°59'0 0.0
2018-Apr-16 20:30N 33°52' E 130°59'2 4.5
2018-Apr-16 20:00N 33°53' E 131°02'815.0
2018-Apr-16 19:30N 33°53' E 131°11'1019.4
2018-Apr-16 19:00N 33°50' E 131°22'1019.3
2018-Apr-16 18:30N 33°48' E 131°33'1019.1
2018-Apr-16 18:00N 33°46' E 131°44'1019.5
2018-Apr-16 17:30N 33°44' E 131°56'1020.0
2018-Apr-16 16:59N 33°42' E 132°08'1020.8
2018-Apr-16 16:30N 33°45' E 132°20'1021.0
2018-Apr-16 16:00N 33°50' E 132°31'1121.1
2018-Apr-16 15:30N 33°57' E 132°41'6718.5
2018-Apr-16 11:53N 34°24' E 133°55'615.5
2018-Apr-16 11:29N 34°26' E 134°02'1122.6
2018-Apr-16 11:00N 34°25' E 134°15'1122.4
2018-Apr-16 10:30N 34°28' E 134°28'1122.2
2018-Apr-16 10:00N 34°32' E 134°40'1122.8
2018-Apr-16 09:30N 34°36' E 134°53'1121.0
2018-Apr-16 09:00N 34°36' E 135°06'1020.8
2018-Apr-16 08:31N 34°37' E 135°19'610.8
2018-Apr-16 07:58N 34°37' E 135°26'0 0.0
2018-Apr-16 07:28N 34°37' E 135°26'0 0.0
2018-Apr-16 06:58N 34°37' E 135°26'0 0.0
2018-Apr-16 06:28N 34°37' E 135°26'0 0.0
2018-Apr-16 05:58N 34°37' E 135°26'0 0.0
2018-Apr-16 05:25N 34°37' E 135°26'0 0.0
2018-Apr-16 04:58N 34°37' E 135°26'0 0.0
2018-Apr-16 04:28N 34°37' E 135°26'0 0.0
2018-Apr-16 03:58N 34°37' E 135°26'0 0.0
2018-Apr-16 03:28N 34°37' E 135°26'0 0.0
2018-Apr-16 02:58N 34°37' E 135°26'0 0.0
2018-Apr-16 02:28N 34°37' E 135°26'0 0.0
2018-Apr-16 01:58N 34°37' E 135°26'0 0.0
2018-Apr-16 01:28N 34°37' E 135°26'0 0.0
2018-Apr-16 00:58N 34°37' E 135°26'0 0.0
2018-Apr-16 00:28N 34°37' E 135°26'0 0.0
2018-Apr-15 23:58N 34°37' E 135°26'0 0.0
2018-Apr-15 23:28N 34°37' E 135°26'0 0.0
2018-Apr-15 22:58N 34°37' E 135°26'0 0.0
2018-Apr-15 22:28N 34°37' E 135°26'0 0.0
2018-Apr-15 21:58N 34°37' E 135°26'0 0.0
2018-Apr-15 21:28N 34°37' E 135°26'0 0.0
2018-Apr-15 20:58N 34°37' E 135°26'0 0.0
2018-Apr-15 20:30N 34°37' E 135°26'3 5.2
2018-Apr-15 20:00N 34°38' E 135°23'612.3
2018-Apr-15 19:30N 34°36' E 135°16'815.2
2018-Apr-15 19:01N 34°35' E 135°07'1020.1
2018-Apr-15 18:30N 34°35' E 134°54'1121.0
2018-Apr-15 18:00N 34°31' E 134°43'1020.2
2018-Apr-15 17:30N 34°27' E 134°31'1020.2
2018-Apr-15 17:00N 34°24' E 134°20'1121.1
2018-Apr-15 16:30N 34°26' E 134°07'2317.1
2018-Apr-15 15:10N 34°18' E 133°41'4418.6
2018-Apr-15 12:48N 34°04' E 132°50'723.4
2018-Apr-15 12:30N 33°59' E 132°45'1323.6
2018-Apr-15 11:59N 33°51' E 132°34'1522.9
2018-Apr-15 11:20N 33°44' E 132°18'823.2
2018-Apr-15 10:59N 33°42' E 132°09'1122.6
2018-Apr-15 10:30N 33°43' E 131°56'1122.0
2018-Apr-15 10:00N 33°46' E 131°43'1121.7
2018-Apr-15 09:30N 33°48' E 131°30'1121.8
2018-Apr-15 09:00N 33°50' E 131°17'1019.4
2018-Apr-15 08:30N 33°53' E 131°06'610.3
2018-Apr-15 07:56N 33°52' E 130°59'0 0.0
2018-Apr-15 07:26N 33°52' E 130°59'0 0.0
2018-Apr-15 06:56N 33°52' E 130°59'0 0.0
2018-Apr-15 06:26N 33°52' E 130°59'0 0.0
2018-Apr-15 05:59N 33°52' E 130°59'0 0.0
2018-Apr-15 05:26N 33°52' E 130°59'0 0.0
2018-Apr-15 05:00N 33°52' E 130°59'3 5.4
2018-Apr-15 04:30N 33°53' E 131°02'0 0.1
2018-Apr-15 04:00N 33°53' E 131°02'0 0.0
2018-Apr-15 03:30N 33°53' E 131°02'0 0.0
2018-Apr-15 03:00N 33°53' E 131°02'0 0.0
2018-Apr-15 02:30N 33°53' E 131°02'0 0.0
2018-Apr-15 02:00N 33°53' E 131°02'0 0.0
2018-Apr-15 01:30N 33°53' E 131°02'0 0.0
2018-Apr-15 01:00N 33°53' E 131°02'0 0.0
2018-Apr-15 00:30N 33°53' E 131°02'0 0.0
2018-Apr-15 00:00N 33°53' E 131°02'0 0.0
2018-Apr-14 23:30N 33°53' E 131°02'0 0.2
2018-Apr-14 23:00N 33°53' E 131°02'3 5.5
2018-Apr-14 22:30N 33°52' E 130°59'0 0.0
2018-Apr-14 22:00N 33°52' E 130°59'0 0.0
2018-Apr-14 21:30N 33°52' E 130°59'0 0.0
2018-Apr-14 20:57N 33°52' E 130°59'0 0.0
2018-Apr-14 20:30N 33°52' E 130°59'2 4.9
2018-Apr-14 20:00N 33°53' E 131°02'816.4
2018-Apr-14 19:30N 33°52' E 131°12'1020.5
2018-Apr-14 19:00N 33°50' E 131°23'1121.2
2018-Apr-14 18:31N 33°47' E 131°36'1121.4
2018-Apr-14 18:00N 33°45' E 131°49'1121.0
2018-Apr-14 17:30N 33°43' E 132°01'1020.0
2018-Apr-14 16:59N 33°43' E 132°13'1019.9
2018-Apr-14 16:31N 33°46' E 132°24'1020.1
2018-Apr-14 16:00N 33°52' E 132°34'1020.8
2018-Apr-14 15:30N 33°59' E 132°44'7117.3
2018-Apr-14 11:23N 34°27' E 134°03'922.7
2018-Apr-14 11:01N 34°25' E 134°13'1122.2
2018-Apr-14 10:30N 34°26' E 134°26'1122.0
2018-Apr-14 10:00N 34°31' E 134°38'1122.9
2018-Apr-14 09:31N 34°35' E 134°51'1122.2
2018-Apr-14 09:00N 34°36' E 135°05'1121.1
2018-Apr-14 08:30N 34°37' E 135°18'713.6
2018-Apr-14 08:00N 34°37' E 135°26'0 0.1
2018-Apr-14 07:29N 34°37' E 135°26'0 0.0
2018-Apr-14 06:59N 34°37' E 135°26'0 0.0
2018-Apr-14 06:29N 34°37' E 135°26'0 0.0
2018-Apr-14 05:59N 34°37' E 135°26'0 0.0
2018-Apr-14 05:29N 34°37' E 135°26'0 0.0
2018-Apr-14 04:59N 34°37' E 135°26'0 0.0
2018-Apr-14 04:29N 34°37' E 135°26'0 0.0
2018-Apr-14 03:59N 34°37' E 135°26'0 0.0
2018-Apr-14 03:29N 34°37' E 135°26'0 0.0
2018-Apr-14 02:59N 34°37' E 135°26'0 0.0
2018-Apr-14 02:29N 34°37' E 135°26'0 0.0
2018-Apr-14 01:59N 34°37' E 135°26'0 0.0
2018-Apr-14 01:29N 34°37' E 135°26'0 0.0
2018-Apr-14 00:59N 34°37' E 135°26'0 0.0
2018-Apr-14 00:29N 34°37' E 135°26'0 0.0
2018-Apr-13 23:59N 34°37' E 135°26'0 0.0
2018-Apr-13 23:26N 34°37' E 135°26'0 0.0
2018-Apr-13 22:59N 34°37' E 135°26'0 0.0
2018-Apr-13 22:29N 34°37' E 135°26'0 0.0
2018-Apr-13 21:59N 34°37' E 135°26'0 0.0
2018-Apr-13 21:29N 34°37' E 135°26'0 0.0
2018-Apr-13 20:59N 34°37' E 135°26'0 0.0
2018-Apr-13 20:30N 34°37' E 135°26'3 5.3
2018-Apr-13 20:01N 34°38' E 135°23'917.5
2018-Apr-13 19:31N 34°35' E 135°13'918.4
2018-Apr-13 19:00N 34°37' E 135°02'1020.1
2018-Apr-13 18:30N 34°33' E 134°50'1021.0
2018-Apr-13 18:00N 34°29' E 134°38'1020.6
2018-Apr-13 17:30N 34°25' E 134°27'2019.9
2018-Apr-13 16:30N 34°26' E 134°03'713.9
2018-Apr-13 15:58N 34°24' E 133°54'1318.1
2018-Apr-13 15:16N 34°18' E 133°41'4118.5
2018-Apr-13 13:02N 34°07' E 132°52'821.9
2018-Apr-13 12:41N 34°01' E 132°46'422.4
2018-Apr-13 12:31N 33°58' E 132°43'1122.8
2018-Apr-13 12:00N 33°50' E 132°33'1222.5
2018-Apr-13 11:29N 33°45' E 132°21'1222.3
2018-Apr-13 10:58N 33°41' E 132°07'1022.4
2018-Apr-13 10:30N 33°44' E 131°55'1122.1
2018-Apr-13 10:00N 33°46' E 131°42'1121.6
2018-Apr-13 09:30N 33°48' E 131°29'1121.6
2018-Apr-13 09:00N 33°50' E 131°17'1019.5
2018-Apr-13 08:30N 33°53' E 131°06'610.9
2018-Apr-13 08:00N 33°52' E 130°59'0 0.0
2018-Apr-13 07:30N 33°52' E 130°59'0 0.0
2018-Apr-13 07:00N 33°52' E 130°59'0 0.0
2018-Apr-13 06:30N 33°52' E 130°59'0 0.0
2018-Apr-13 06:00N 33°52' E 130°59'0 0.0
2018-Apr-13 05:30N 33°52' E 130°59'0 0.0
2018-Apr-13 05:00N 33°52' E 130°59'3 5.6
2018-Apr-13 04:31N 33°53' E 131°02'0 0.1
2018-Apr-13 04:00N 33°53' E 131°02'0 0.0
2018-Apr-13 03:30N 33°53' E 131°02'0 0.0
2018-Apr-13 03:00N 33°53' E 131°02'0 0.0
2018-Apr-13 02:30N 33°53' E 131°02'0 0.0
2018-Apr-13 02:00N 33°53' E 131°02'0 0.0
2018-Apr-13 01:30N 33°53' E 131°02'0 0.1
2018-Apr-13 01:00N 33°53' E 131°02'0 0.0
2018-Apr-13 00:30N 33°53' E 131°02'0 0.0
2018-Apr-13 00:00N 33°53' E 131°02'0 0.0
2018-Apr-12 23:30N 33°53' E 131°02'0 0.0
2018-Apr-12 23:00N 33°53' E 131°02'0 0.1
2018-Apr-12 22:30N 33°53' E 131°02'3 5.3
2018-Apr-12 21:58N 33°52' E 130°59'0 0.0
2018-Apr-12 21:25N 33°52' E 130°59'0 0.0
2018-Apr-12 20:55N 33°52' E 130°59'0 0.0
2018-Apr-12 20:28N 33°52' E 130°59'4 8.0
2018-Apr-12 20:00N 33°54' E 131°03'917.8
2018-Apr-12 19:30N 33°52' E 131°13'1019.8
2018-Apr-12 19:00N 33°50' E 131°25'1020.1
2018-Apr-12 18:30N 33°48' E 131°37'1020.2
2018-Apr-12 18:00N 33°46' E 131°49'1120.7
2018-Apr-12 17:30N 33°43' E 132°01'1020.7
2018-Apr-12 17:00N 33°43' E 132°13'1121.4
2018-Apr-12 16:30N 33°47' E 132°26'1121.6
2018-Apr-12 16:00N 33°53' E 132°36'1122.0
2018-Apr-12 15:30N 34°01' E 132°46'6517.5
2018-Apr-12 11:47N 34°25' E 133°59'415.4
2018-Apr-12 11:29N 34°27' E 134°04'1021.2
2018-Apr-12 11:00N 34°24' E 134°16'1121.4
2018-Apr-12 10:30N 34°27' E 134°28'1121.5
2018-Apr-12 10:00N 34°32' E 134°40'1122.2
2018-Apr-12 09:31N 34°35' E 134°53'1121.5
2018-Apr-12 09:01N 34°36' E 135°06'1121.2
2018-Apr-12 08:31N 34°37' E 135°19'611.1
2018-Apr-12 07:58N 34°37' E 135°26'0 0.0
2018-Apr-12 07:28N 34°37' E 135°26'0 0.0
2018-Apr-12 06:58N 34°37' E 135°26'0 0.0
2018-Apr-12 06:28N 34°37' E 135°26'0 0.0
2018-Apr-12 05:58N 34°37' E 135°26'0 0.0
2018-Apr-12 05:28N 34°37' E 135°26'0 0.0
2018-Apr-12 04:58N 34°37' E 135°26'0 0.0
2018-Apr-12 04:28N 34°37' E 135°26'0 0.0
2018-Apr-12 03:58N 34°37' E 135°26'0 0.0
2018-Apr-12 03:28N 34°37' E 135°26'0 0.0
2018-Apr-12 02:58N 34°37' E 135°26'0 0.0
2018-Apr-12 02:28N 34°37' E 135°26'0 0.0
2018-Apr-12 01:58N 34°37' E 135°26'0 0.0
2018-Apr-12 01:28N 34°37' E 135°26'0 0.0
2018-Apr-12 00:58N 34°37' E 135°26'0 0.0
2018-Apr-12 00:28N 34°37' E 135°26'0 0.0
2018-Apr-11 23:58N 34°37' E 135°26'0 0.0
2018-Apr-11 23:28N 34°37' E 135°26'0 0.0
2018-Apr-11 22:58N 34°37' E 135°26'0 0.0
2018-Apr-11 22:28N 34°37' E 135°26'0 0.0
2018-Apr-11 21:58N 34°37' E 135°26'0 0.0
2018-Apr-11 21:28N 34°37' E 135°26'0 0.0
2018-Apr-11 20:58N 34°37' E 135°26'  
Track history (hours):
 
Tides and Currents Weather Stations Pressure Air Temp Water Temp Dewpoint Dewpoint Depression Visibility Wind Speed Wind Dir Waves Ship Positions

Ferry Kyoto II

Last reported at 2018-Apr-21 20:31 UTC. Time now 2018-Apr-21 20:45 UTC.
Position N 34°37' E 135°22'.

Length 167 m; draft 5.9 m.

Type: Passenger vessel. MMSI: 431301641.

Date/timePositionNaut miles runAvg speedWind from/ knotsBaromVisibWave heightAir tempDewpointWater temp
2018-Apr-21 20:31N 34°37' E 135°22'713.4
2018-Apr-21 20:00N 34°35' E 135°14'713.8
2018-Apr-21 19:30N 34°34' E 135°06'714.4
2018-Apr-21 19:00N 34°36' E 134°58'1020.9
2018-Apr-21 18:30N 34°32' E 134°46'1121.4
2018-Apr-21 18:00N 34°28' E 134°34'1121.7
2018-Apr-21 17:31N 34°24' E 134°22'1120.6
2018-Apr-21 17:00N 34°25' E 134°09'1015.4
2018-Apr-21 16:21N 34°24' E 133°57'513.4
2018-Apr-21 16:00N 34°23' E 133°52'816.6
2018-Apr-21 15:30N 34°19' E 133°43'1420.3
2018-Apr-21 14:48N 34°15' E 133°26'2818.2
2018-Apr-21 13:15N 34°09' E 132°53'622.6
2018-Apr-21 12:59N 34°04' E 132°49'1122.2
2018-Apr-21 12:31N 33°56' E 132°41'1121.8
2018-Apr-21 12:00N 33°49' E 132°30'1222.1
2018-Apr-21 11:28N 33°44' E 132°17'1421.3
2018-Apr-21 10:50N 33°42' E 132°01'720.9
2018-Apr-21 10:30N 33°43' E 131°53'1121.2
2018-Apr-21 10:00N 33°46' E 131°41'1121.4
2018-Apr-21 09:31N 33°48' E 131°28'1121.6
2018-Apr-21 09:00N 33°50' E 131°15'918.6
2018-Apr-21 08:31N 33°53' E 131°05'5 8.8
2018-Apr-21 07:57N 33°52' E 130°59'0 0.0
2018-Apr-21 07:27N 33°52' E 130°59'0 0.0
2018-Apr-21 06:57N 33°52' E 130°59'0 0.0
2018-Apr-21 06:27N 33°52' E 130°59'0 0.0
2018-Apr-21 06:00N 33°52' E 130°59'0 0.0
2018-Apr-21 05:27N 33°52' E 130°59'0 0.0
2018-Apr-21 04:57N 33°52' E 130°59'0 0.3
2018-Apr-21 04:27N 33°52' E 130°59'0 0.0
2018-Apr-21 03:57N 33°52' E 130°59'0 0.0
2018-Apr-21 03:21N 33°52' E 130°59'0 0.0
2018-Apr-21 02:57N 33°52' E 130°59'0 0.0
2018-Apr-21 02:27N 33°52' E 130°59'0 0.0
2018-Apr-21 01:57N 33°52' E 130°59'0 0.0
2018-Apr-21 01:27N 33°52' E 130°59'0 0.0
2018-Apr-21 00:57N 33°52' E 130°59'0 0.0
2018-Apr-21 00:27N 33°52' E 130°59'0 0.0
2018-Apr-20 23:57N 33°52' E 130°59'0 0.0
2018-Apr-20 23:27N 33°52' E 130°59'0 0.0
2018-Apr-20 22:57N 33°52' E 130°59'0 0.0
2018-Apr-20 22:27N 33°52' E 130°59'0 0.3
2018-Apr-20 21:56N 33°52' E 130°59'0 0.0
2018-Apr-20 21:26N 33°52' E 130°59'0 0.0
2018-Apr-20 20:56N 33°52' E 130°59'0 0.0
2018-Apr-20 20:31N 33°52' E 130°59'5 9.5
2018-Apr-20 20:00N 33°54' E 131°05'918.1
2018-Apr-20 19:30N 33°51' E 131°15'1020.9
2018-Apr-20 19:00N 33°50' E 131°28'1121.2
2018-Apr-20 18:30N 33°48' E 131°40'1121.4
2018-Apr-20 18:00N 33°46' E 131°53'1121.0
2018-Apr-20 17:30N 33°47' E 132°06'1121.3
2018-Apr-20 16:59N 33°50' E 132°18'1121.2
2018-Apr-20 16:29N 33°53' E 132°31'1020.7
2018-Apr-20 16:00N 33°57' E 132°41'6317.7
2018-Apr-20 12:26N 34°23' E 133°51'714.3
2018-Apr-20 11:58N 34°25' E 133°59'918.3
2018-Apr-20 11:29N 34°26' E 134°09'1021.0
2018-Apr-20 11:00N 34°25' E 134°21'1121.4
2018-Apr-20 10:30N 34°29' E 134°34'1121.1
2018-Apr-20 10:00N 34°33' E 134°46'1020.3
2018-Apr-20 09:31N 34°37' E 134°57'917.2
2018-Apr-20 09:00N 34°36' E 135°07'1020.2
2018-Apr-20 08:30N 34°37' E 135°19'5 9.7
2018-Apr-20 07:58N 34°37' E 135°26'0 0.0
2018-Apr-20 07:28N 34°37' E 135°26'0 0.0
2018-Apr-20 06:58N 34°37' E 135°26'0 0.0
2018-Apr-20 06:28N 34°37' E 135°26'0 0.0
2018-Apr-20 05:49N 34°37' E 135°26'0 0.0
2018-Apr-20 05:28N 34°37' E 135°26'0 0.0
2018-Apr-20 04:49N 34°37' E 135°26'0 0.0
2018-Apr-20 04:28N 34°37' E 135°26'0 0.0
2018-Apr-20 03:58N 34°37' E 135°26'0 0.0
2018-Apr-20 03:28N 34°37' E 135°26'0 0.0
2018-Apr-20 02:58N 34°37' E 135°26'0 0.0
2018-Apr-20 02:28N 34°37' E 135°26'0 0.0
2018-Apr-20 01:58N 34°37' E 135°26'0 0.0
2018-Apr-20 01:28N 34°37' E 135°26'0 0.0
2018-Apr-20 00:58N 34°37' E 135°26'0 0.0
2018-Apr-20 00:28N 34°37' E 135°26'0 0.0
2018-Apr-19 23:58N 34°37' E 135°26'0 0.0
2018-Apr-19 23:28N 34°37' E 135°26'0 0.0
2018-Apr-19 22:58N 34°37' E 135°26'0 0.0
2018-Apr-19 22:28N 34°37' E 135°26'0 0.0
2018-Apr-19 21:58N 34°37' E 135°26'0 0.0
2018-Apr-19 21:28N 34°37' E 135°26'0 0.0
2018-Apr-19 20:58N 34°37' E 135°26'0 0.0
2018-Apr-19 20:30N 34°37' E 135°26'4 7.8
2018-Apr-19 20:00N 34°37' E 135°21'1019.8
2018-Apr-19 19:31N 34°35' E 135°09'1020.6
2018-Apr-19 19:01N 34°36' E 134°57'1122.0
2018-Apr-19 18:30N 34°31' E 134°45'1019.9
2018-Apr-19 18:01N 34°27' E 134°34'1019.9
2018-Apr-19 17:30N 34°24' E 134°22'1020.0
2018-Apr-19 17:01N 34°25' E 134°10'916.1
2018-Apr-19 16:28N 34°25' E 133°60'5317.3
2018-Apr-19 13:24N 34°09' E 132°58'919.9
2018-Apr-19 12:57N 34°04' E 132°49'1123.8
2018-Apr-19 12:30N 33°56' E 132°41'1223.1
2018-Apr-19 12:00N 33°49' E 132°30'1122.7
2018-Apr-19 11:30N 33°44' E 132°18'1121.9
2018-Apr-19 10:59N 33°42' E 132°05'1021.4
2018-Apr-19 10:31N 33°44' E 131°53'1121.2
2018-Apr-19 10:01N 33°46' E 131°40'1121.1
2018-Apr-19 09:31N 33°48' E 131°28'1121.5
2018-Apr-19 09:01N 33°51' E 131°15'918.0
2018-Apr-19 08:30N 33°53' E 131°05'5 7.9
2018-Apr-19 07:55N 33°52' E 130°59'0 0.0
2018-Apr-19 07:25N 33°52' E 130°59'0 0.0
2018-Apr-19 06:58N 33°52' E 130°59'0 0.0
2018-Apr-19 06:25N 33°52' E 130°59'0 0.0
2018-Apr-19 05:55N 33°52' E 130°59'0 0.0
2018-Apr-19 05:28N 33°52' E 130°59'0 0.0
2018-Apr-19 04:56N 33°52' E 130°59'3 6.4
2018-Apr-19 04:30N 33°53' E 131°02'0 0.2
2018-Apr-19 03:59N 33°53' E 131°02'0 0.0
2018-Apr-19 03:29N 33°53' E 131°02'0 0.0
2018-Apr-19 02:59N 33°53' E 131°02'0 0.0
2018-Apr-19 02:29N 33°53' E 131°02'0 0.0
2018-Apr-19 01:59N 33°53' E 131°02'0 0.0
2018-Apr-19 01:29N 33°53' E 131°02'0 0.0
2018-Apr-19 00:59N 33°53' E 131°02'0 0.0
2018-Apr-19 00:29N 33°53' E 131°02'0 0.0
2018-Apr-18 23:59N 33°53' E 131°02'0 0.1
2018-Apr-18 23:29N 33°53' E 131°02'0 0.0
2018-Apr-18 22:59N 33°53' E 131°02'0 0.1
2018-Apr-18 22:29N 33°53' E 131°02'3 4.9
2018-Apr-18 21:55N 33°52' E 130°59'0 0.0
2018-Apr-18 21:19N 33°52' E 130°59'0 0.0
2018-Apr-18 20:55N 33°52' E 130°59'0 0.0
2018-Apr-18 20:28N 33°52' E 130°59'3 6.4
2018-Apr-18 20:00N 33°54' E 131°02'815.4
2018-Apr-18 19:30N 33°53' E 131°12'1020.3
2018-Apr-18 19:01N 33°50' E 131°23'1121.4
2018-Apr-18 18:30N 33°49' E 131°36'1121.2
2018-Apr-18 17:59N 33°47' E 131°49'1121.5
2018-Apr-18 17:29N 33°46' E 132°02'1122.3
2018-Apr-18 16:59N 33°50' E 132°15'1022.2
2018-Apr-18 16:30N 33°52' E 132°27'1121.7
2018-Apr-18 16:01N 33°56' E 132°39'1120.6
2018-Apr-18 15:27N 34°04' E 132°49'6616.5
2018-Apr-18 11:28N 34°27' E 134°04'1022.8
2018-Apr-18 11:00N 34°25' E 134°16'1122.3
2018-Apr-18 10:31N 34°28' E 134°29'1122.1
2018-Apr-18 10:00N 34°32' E 134°41'1121.9
2018-Apr-18 09:31N 34°36' E 134°54'1019.5
2018-Apr-18 09:00N 34°36' E 135°06'1020.7
2018-Apr-18 08:31N 34°37' E 135°18'612.3
2018-Apr-18 07:59N 34°37' E 135°26'0 0.0
2018-Apr-18 07:26N 34°37' E 135°26'0 0.0
2018-Apr-18 06:59N 34°37' E 135°26'0 0.0
2018-Apr-18 06:29N 34°37' E 135°26'0 0.0
2018-Apr-18 05:59N 34°37' E 135°26'0 0.0
2018-Apr-18 05:29N 34°37' E 135°26'0 0.0
2018-Apr-18 04:59N 34°37' E 135°26'0 0.0
2018-Apr-18 04:29N 34°37' E 135°26'0 0.0
2018-Apr-18 03:59N 34°37' E 135°26'0 0.0
2018-Apr-18 03:29N 34°37' E 135°26'0 0.0
2018-Apr-18 02:59N 34°37' E 135°26'0 0.0
2018-Apr-18 02:29N 34°37' E 135°26'0 0.0
2018-Apr-18 01:59N 34°37' E 135°26'0 0.0
2018-Apr-18 01:26N 34°37' E 135°26'0 0.0
2018-Apr-18 00:59N 34°37' E 135°26'0 0.0
2018-Apr-18 00:23N 34°37' E 135°26'0 0.0
2018-Apr-17 23:59N 34°37' E 135°26'0 0.0
2018-Apr-17 23:29N 34°37' E 135°26'0 0.0
2018-Apr-17 22:59N 34°37' E 135°26'0 0.0
2018-Apr-17 22:29N 34°37' E 135°26'0 0.0
2018-Apr-17 21:56N 34°37' E 135°26'0 0.0
2018-Apr-17 21:29N 34°37' E 135°26'0 0.0
2018-Apr-17 20:56N 34°37' E 135°26'0 0.0
2018-Apr-17 20:29N 34°37' E 135°26'2 4.9
2018-Apr-17 20:00N 34°38' E 135°23'612.9
2018-Apr-17 19:30N 34°36' E 135°16'816.9
2018-Apr-17 19:01N 34°35' E 135°06'1121.4
2018-Apr-17 18:31N 34°34' E 134°53'1122.0
2018-Apr-17 18:01N 34°30' E 134°41'1121.4
2018-Apr-17 17:30N 34°26' E 134°28'1121.4
2018-Apr-17 17:00N 34°24' E 134°16'1121.3
2018-Apr-17 16:29N 34°26' E 134°03'2216.9
2018-Apr-17 15:12N 34°18' E 133°38'3519.0
2018-Apr-17 13:23N 34°09' E 132°58'720.0
2018-Apr-17 13:00N 34°05' E 132°50'1224.0
2018-Apr-17 12:31N 33°56' E 132°41'1223.3
2018-Apr-17 12:00N 33°49' E 132°30'1223.0
2018-Apr-17 11:30N 33°44' E 132°17'1122.2
2018-Apr-17 11:01N 33°42' E 132°04'1121.6
2018-Apr-17 10:30N 33°44' E 131°51'1121.0
2018-Apr-17 10:00N 33°46' E 131°39'1020.8
2018-Apr-17 09:31N 33°48' E 131°27'1020.9
2018-Apr-17 09:01N 33°51' E 131°15'917.8
2018-Apr-17 08:31N 33°54' E 131°05'5 8.7
2018-Apr-17 07:56N 33°52' E 130°59'0 0.0
2018-Apr-17 07:26N 33°52' E 130°59'0 0.0
2018-Apr-17 06:56N 33°52' E 130°59'0 0.0
2018-Apr-17 06:26N 33°52' E 130°59'0 0.0
2018-Apr-17 05:56N 33°52' E 130°59'0 0.0
2018-Apr-17 05:26N 33°52' E 130°59'0 0.0
2018-Apr-17 05:00N 33°52' E 130°59'2 4.9
2018-Apr-17 04:30N 33°53' E 131°02'0 0.4
2018-Apr-17 03:59N 33°53' E 131°02'0 0.0
2018-Apr-17 03:29N 33°53' E 131°02'0 0.0
2018-Apr-17 02:59N 33°53' E 131°02'0 0.1
2018-Apr-17 02:29N 33°53' E 131°02'0 0.0
2018-Apr-17 01:59N 33°53' E 131°02'0 0.1
2018-Apr-17 01:29N 33°53' E 131°02'0 0.1
2018-Apr-17 00:59N 33°53' E 131°02'0 0.0
2018-Apr-17 00:29N 33°53' E 131°02'0 0.0
2018-Apr-16 23:59N 33°53' E 131°02'0 0.0
2018-Apr-16 23:29N 33°53' E 131°02'0 0.0
2018-Apr-16 22:59N 33°53' E 131°02'0 0.2
2018-Apr-16 22:29N 33°53' E 131°02'3 5.4
2018-Apr-16 22:00N 33°52' E 130°59'0 0.0
2018-Apr-16 21:24N 33°52' E 130°59'0 0.0
2018-Apr-16 21:00N 33°52' E 130°59'0 0.0
2018-Apr-16 20:30N 33°52' E 130°59'2 4.5
2018-Apr-16 20:00N 33°53' E 131°02'815.0
2018-Apr-16 19:30N 33°53' E 131°11'1019.4
2018-Apr-16 19:00N 33°50' E 131°22'1019.3
2018-Apr-16 18:30N 33°48' E 131°33'1019.1
2018-Apr-16 18:00N 33°46' E 131°44'1019.5
2018-Apr-16 17:30N 33°44' E 131°56'1020.0
2018-Apr-16 16:59N 33°42' E 132°08'1020.8
2018-Apr-16 16:30N 33°45' E 132°20'1021.0
2018-Apr-16 16:00N 33°50' E 132°31'1121.1
2018-Apr-16 15:30N 33°57' E 132°41'6718.5
2018-Apr-16 11:53N 34°24' E 133°55'615.5
2018-Apr-16 11:29N 34°26' E 134°02'1122.6
2018-Apr-16 11:00N 34°25' E 134°15'1122.4
2018-Apr-16 10:30N 34°28' E 134°28'1122.2
2018-Apr-16 10:00N 34°32' E 134°40'1122.8
2018-Apr-16 09:30N 34°36' E 134°53'1121.0
2018-Apr-16 09:00N 34°36' E 135°06'1020.8
2018-Apr-16 08:31N 34°37' E 135°19'610.8
2018-Apr-16 07:58N 34°37' E 135°26'0 0.0
2018-Apr-16 07:28N 34°37' E 135°26'0 0.0
2018-Apr-16 06:58N 34°37' E 135°26'0 0.0
2018-Apr-16 06:28N 34°37' E 135°26'0 0.0
2018-Apr-16 05:58N 34°37' E 135°26'0 0.0
2018-Apr-16 05:25N 34°37' E 135°26'0 0.0
2018-Apr-16 04:58N 34°37' E 135°26'0 0.0
2018-Apr-16 04:28N 34°37' E 135°26'0 0.0
2018-Apr-16 03:58N 34°37' E 135°26'0 0.0
2018-Apr-16 03:28N 34°37' E 135°26'0 0.0
2018-Apr-16 02:58N 34°37' E 135°26'0 0.0
2018-Apr-16 02:28N 34°37' E 135°26'0 0.0
2018-Apr-16 01:58N 34°37' E 135°26'0 0.0
2018-Apr-16 01:28N 34°37' E 135°26'0 0.0
2018-Apr-16 00:58N 34°37' E 135°26'0 0.0
2018-Apr-16 00:28N 34°37' E 135°26'0 0.0
2018-Apr-15 23:58N 34°37' E 135°26'0 0.0
2018-Apr-15 23:28N 34°37' E 135°26'0 0.0
2018-Apr-15 22:58N 34°37' E 135°26'0 0.0
2018-Apr-15 22:28N 34°37' E 135°26'0 0.0
2018-Apr-15 21:58N 34°37' E 135°26'0 0.0
2018-Apr-15 21:28N 34°37' E 135°26'0 0.0
2018-Apr-15 20:58N 34°37' E 135°26'0 0.0
2018-Apr-15 20:30N 34°37' E 135°26'3 5.2
2018-Apr-15 20:00N 34°38' E 135°23'612.3
2018-Apr-15 19:30N 34°36' E 135°16'815.2
2018-Apr-15 19:01N 34°35' E 135°07'1020.1
2018-Apr-15 18:30N 34°35' E 134°54'1121.0
2018-Apr-15 18:00N 34°31' E 134°43'1020.2
2018-Apr-15 17:30N 34°27' E 134°31'1020.2
2018-Apr-15 17:00N 34°24' E 134°20'1121.1
2018-Apr-15 16:30N 34°26' E 134°07'2317.1
2018-Apr-15 15:10N 34°18' E 133°41'4418.6
2018-Apr-15 12:48N 34°04' E 132°50'723.4
2018-Apr-15 12:30N 33°59' E 132°45'1323.6
2018-Apr-15 11:59N 33°51' E 132°34'1522.9
2018-Apr-15 11:20N 33°44' E 132°18'823.2
2018-Apr-15 10:59N 33°42' E 132°09'1122.6
2018-Apr-15 10:30N 33°43' E 131°56'1122.0
2018-Apr-15 10:00N 33°46' E 131°43'1121.7
2018-Apr-15 09:30N 33°48' E 131°30'1121.8
2018-Apr-15 09:00N 33°50' E 131°17'1019.4
2018-Apr-15 08:30N 33°53' E 131°06'610.3
2018-Apr-15 07:56N 33°52' E 130°59'0 0.0
2018-Apr-15 07:26N 33°52' E 130°59'0 0.0
2018-Apr-15 06:56N 33°52' E 130°59'0 0.0
2018-Apr-15 06:26N 33°52' E 130°59'0 0.0
2018-Apr-15 05:59N 33°52' E 130°59'0 0.0
2018-Apr-15 05:26N 33°52' E 130°59'0 0.0
2018-Apr-15 05:00N 33°52' E 130°59'3 5.4
2018-Apr-15 04:30N 33°53' E 131°02'0 0.1
2018-Apr-15 04:00N 33°53' E 131°02'0 0.0
2018-Apr-15 03:30N 33°53' E 131°02'0 0.0
2018-Apr-15 03:00N 33°53' E 131°02'0 0.0
2018-Apr-15 02:30N 33°53' E 131°02'0 0.0
2018-Apr-15 02:00N 33°53' E 131°02'0 0.0
2018-Apr-15 01:30N 33°53' E 131°02'0 0.0
2018-Apr-15 01:00N 33°53' E 131°02'0 0.0
2018-Apr-15 00:30N 33°53' E 131°02'0 0.0
2018-Apr-15 00:00N 33°53' E 131°02'0 0.0
2018-Apr-14 23:30N 33°53' E 131°02'0 0.2
2018-Apr-14 23:00N 33°53' E 131°02'3 5.5
2018-Apr-14 22:30N 33°52' E 130°59'0 0.0
2018-Apr-14 22:00N 33°52' E 130°59'0 0.0
2018-Apr-14 21:30N 33°52' E 130°59'0 0.0
2018-Apr-14 20:57N 33°52' E 130°59'0 0.0
2018-Apr-14 20:30N 33°52' E 130°59'2 4.9
2018-Apr-14 20:00N 33°53' E 131°02'816.4
2018-Apr-14 19:30N 33°52' E 131°12'1020.5
2018-Apr-14 19:00N 33°50' E 131°23'1121.2
2018-Apr-14 18:31N 33°47' E 131°36'1121.4
2018-Apr-14 18:00N 33°45' E 131°49'1121.0
2018-Apr-14 17:30N 33°43' E 132°01'1020.0
2018-Apr-14 16:59N 33°43' E 132°13'1019.9
2018-Apr-14 16:31N 33°46' E 132°24'1020.1
2018-Apr-14 16:00N 33°52' E 132°34'1020.8
2018-Apr-14 15:30N 33°59' E 132°44'7117.3
2018-Apr-14 11:23N 34°27' E 134°03'922.7
2018-Apr-14 11:01N 34°25' E 134°13'1122.2
2018-Apr-14 10:30N 34°26' E 134°26'1122.0
2018-Apr-14 10:00N 34°31' E 134°38'1122.9
2018-Apr-14 09:31N 34°35' E 134°51'1122.2
2018-Apr-14 09:00N 34°36' E 135°05'1121.1
2018-Apr-14 08:30N 34°37' E 135°18'713.6
2018-Apr-14 08:00N 34°37' E 135°26'0 0.1
2018-Apr-14 07:29N 34°37' E 135°26'0 0.0
2018-Apr-14 06:59N 34°37' E 135°26'0 0.0
2018-Apr-14 06:29N 34°37' E 135°26'0 0.0
2018-Apr-14 05:59N 34°37' E 135°26'0 0.0
2018-Apr-14 05:29N 34°37' E 135°26'0 0.0
2018-Apr-14 04:59N 34°37' E 135°26'0 0.0
2018-Apr-14 04:29N 34°37' E 135°26'0 0.0
2018-Apr-14 03:59N 34°37' E 135°26'0 0.0
2018-Apr-14 03:29N 34°37' E 135°26'0 0.0
2018-Apr-14 02:59N 34°37' E 135°26'0 0.0
2018-Apr-14 02:29N 34°37' E 135°26'0 0.0
2018-Apr-14 01:59N 34°37' E 135°26'0 0.0
2018-Apr-14 01:29N 34°37' E 135°26'0 0.0
2018-Apr-14 00:59N 34°37' E 135°26'0 0.0
2018-Apr-14 00:29N 34°37' E 135°26'0 0.0
2018-Apr-13 23:59N 34°37' E 135°26'0 0.0
2018-Apr-13 23:26N 34°37' E 135°26'0 0.0
2018-Apr-13 22:59N 34°37' E 135°26'0 0.0
2018-Apr-13 22:29N 34°37' E 135°26'0 0.0
2018-Apr-13 21:59N 34°37' E 135°26'0 0.0
2018-Apr-13 21:29N 34°37' E 135°26'0 0.0
2018-Apr-13 20:59N 34°37' E 135°26'0 0.0
2018-Apr-13 20:30N 34°37' E 135°26'3 5.3
2018-Apr-13 20:01N 34°38' E 135°23'917.5
2018-Apr-13 19:31N 34°35' E 135°13'918.4
2018-Apr-13 19:00N 34°37' E 135°02'1020.1
2018-Apr-13 18:30N 34°33' E 134°50'1021.0
2018-Apr-13 18:00N 34°29' E 134°38'1020.6
2018-Apr-13 17:30N 34°25' E 134°27'2019.9
2018-Apr-13 16:30N 34°26' E 134°03'713.9
2018-Apr-13 15:58N 34°24' E 133°54'1318.1
2018-Apr-13 15:16N 34°18' E 133°41'4118.5
2018-Apr-13 13:02N 34°07' E 132°52'821.9
2018-Apr-13 12:41N 34°01' E 132°46'422.4
2018-Apr-13 12:31N 33°58' E 132°43'1122.8
2018-Apr-13 12:00N 33°50' E 132°33'1222.5
2018-Apr-13 11:29N 33°45' E 132°21'1222.3
2018-Apr-13 10:58N 33°41' E 132°07'1022.4
2018-Apr-13 10:30N 33°44' E 131°55'1122.1
2018-Apr-13 10:00N 33°46' E 131°42'1121.6
2018-Apr-13 09:30N 33°48' E 131°29'1121.6
2018-Apr-13 09:00N 33°50' E 131°17'1019.5
2018-Apr-13 08:30N 33°53' E 131°06'610.9
2018-Apr-13 08:00N 33°52' E 130°59'0 0.0
2018-Apr-13 07:30N 33°52' E 130°59'0 0.0
2018-Apr-13 07:00N 33°52' E 130°59'0 0.0
2018-Apr-13 06:30N 33°52' E 130°59'0 0.0
2018-Apr-13 06:00N 33°52' E 130°59'0 0.0
2018-Apr-13 05:30N 33°52' E 130°59'0 0.0
2018-Apr-13 05:00N 33°52' E 130°59'3 5.6
2018-Apr-13 04:31N 33°53' E 131°02'0 0.1
2018-Apr-13 04:00N 33°53' E 131°02'0 0.0
2018-Apr-13 03:30N 33°53' E 131°02'0 0.0
2018-Apr-13 03:00N 33°53' E 131°02'0 0.0
2018-Apr-13 02:30N 33°53' E 131°02'0 0.0
2018-Apr-13 02:00N 33°53' E 131°02'0 0.0
2018-Apr-13 01:30N 33°53' E 131°02'0 0.1
2018-Apr-13 01:00N 33°53' E 131°02'0 0.0
2018-Apr-13 00:30N 33°53' E 131°02'0 0.0
2018-Apr-13 00:00N 33°53' E 131°02'0 0.0
2018-Apr-12 23:30N 33°53' E 131°02'0 0.0
2018-Apr-12 23:00N 33°53' E 131°02'0 0.1
2018-Apr-12 22:30N 33°53' E 131°02'3 5.3
2018-Apr-12 21:58N 33°52' E 130°59'0 0.0
2018-Apr-12 21:25N 33°52' E 130°59'0 0.0
2018-Apr-12 20:55N 33°52' E 130°59'0 0.0
2018-Apr-12 20:28N 33°52' E 130°59'4 8.0
2018-Apr-12 20:00N 33°54' E 131°03'917.8
2018-Apr-12 19:30N 33°52' E 131°13'1019.8
2018-Apr-12 19:00N 33°50' E 131°25'1020.1
2018-Apr-12 18:30N 33°48' E 131°37'1020.2
2018-Apr-12 18:00N 33°46' E 131°49'1120.7
2018-Apr-12 17:30N 33°43' E 132°01'1020.7
2018-Apr-12 17:00N 33°43' E 132°13'1121.4
2018-Apr-12 16:30N 33°47' E 132°26'1121.6
2018-Apr-12 16:00N 33°53' E 132°36'1122.0
2018-Apr-12 15:30N 34°01' E 132°46'6517.5
2018-Apr-12 11:47N 34°25' E 133°59'415.4
2018-Apr-12 11:29N 34°27' E 134°04'1021.2
2018-Apr-12 11:00N 34°24' E 134°16'1121.4
2018-Apr-12 10:30N 34°27' E 134°28'1121.5
2018-Apr-12 10:00N 34°32' E 134°40'1122.2
2018-Apr-12 09:31N 34°35' E 134°53'1121.5
2018-Apr-12 09:01N 34°36' E 135°06'1121.2
2018-Apr-12 08:31N 34°37' E 135°19'611.1
2018-Apr-12 07:58N 34°37' E 135°26'0 0.0
2018-Apr-12 07:28N 34°37' E 135°26'0 0.0
2018-Apr-12 06:58N 34°37' E 135°26'0 0.0
2018-Apr-12 06:28N 34°37' E 135°26'0 0.0
2018-Apr-12 05:58N 34°37' E 135°26'0 0.0
2018-Apr-12 05:28N 34°37' E 135°26'0 0.0
2018-Apr-12 04:58N 34°37' E 135°26'0 0.0
2018-Apr-12 04:28N 34°37' E 135°26'0 0.0
2018-Apr-12 03:58N 34°37' E 135°26'0 0.0
2018-Apr-12 03:28N 34°37' E 135°26'0 0.0
2018-Apr-12 02:58N 34°37' E 135°26'0 0.0
2018-Apr-12 02:28N 34°37' E 135°26'0 0.0
2018-Apr-12 01:58N 34°37' E 135°26'0 0.0
2018-Apr-12 01:28N 34°37' E 135°26'0 0.0
2018-Apr-12 00:58N 34°37' E 135°26'0 0.0
2018-Apr-12 00:28N 34°37' E 135°26'0 0.0
2018-Apr-11 23:58N 34°37' E 135°26'0 0.0
2018-Apr-11 23:28N 34°37' E 135°26'0 0.0
2018-Apr-11 22:58N 34°37' E 135°26'0 0.0
2018-Apr-11 22:28N 34°37' E 135°26'0 0.0
2018-Apr-11 21:58N 34°37' E 135°26'0 0.0
2018-Apr-11 21:28N 34°37' E 135°26'0 0.0
2018-Apr-11 20:58N 34°37' E 135°26'  

Dump ship's entire track history